Minatare, Nebraska
Current Conditions -  °F | °C
As of 5:53 PM on Monday 24 Nov 2014 (Local Time) from KBFF Reporting Station
Light Snow Light Snow  
Wind Chill: 22°   Ceiling: 6500
Heat Index: 33°   Visibility: 8mi
Dew Point: 24°   Wind: 17mph
Humidity: 70%   Direction: 330°NNW
Pressure: 30.13"   Gusts: 31mph
Location:  41.81°N, 103.5°W
Report Text: KBFF 250053Z AUTO 33015G27KT 8SM -SN SCT045 BKN065 01/M04 A3013 RMK AO2 PK WND 33027/0049 SNB51 SLP231 P0000 T00061044
Loading
Personal Weather Stations






























Interactive Weather Map New forecast layout! Learn more

10-Day Weather Forecast

Advertisements
Track Severe Weather on mobile